Flight Track Log - Related Links

Times and Time Zones

All times are in EDT time to prevent confusion due to time zone crossing. See the N749SS flight status page for this flight to view local times or setup timezone preferences in your user account.

Time Position Orientation Groundspeed Altitude Reporting Facility
EDT Latitude Longitude Course Direction KTS MPH feet Rate Location/Type
Fri 11:25:36 AM 27.2000 -84.5814 292° West 427 491 40,000  Level Houston Center
Fri 11:26:38 AM 27.2436 -84.7058 292° West 426 490 40,000  Level Houston Center
Fri 11:27:40 AM 27.2883 -84.8297 292° West 428 493 40,000  Level Houston Center
Fri 11:28:42 AM 27.3322 -84.9536 292° West 426 490 40,000  Level Houston Center
Fri 11:29:45 AM 27.3850 -85.1014 292° West 426 490 40,000  Level Houston Center
Fri 11:30:47 AM 27.4300 -85.2303 291° West 430 495 40,000  Level Houston Center
Fri 11:32:06 AM 27.4833 -85.3831 300° West 426 490 40,000  Level Jacksonville Center
Fri 11:33:07 AM 27.5267 -85.5106 291° West 433 498 40,000  Level Jacksonville Center
Fri 11:34:06 AM 27.5722 -85.6333 293° West 433 498 40,000  Level Jacksonville Center
Fri 11:35:00 AM 27.6483 -85.6602 300° West  Level Estimated
Fri 11:35:06 AM 27.6133 -85.7586 290° West 427 491 40,000  Level Jacksonville Center
Fri 11:36:07 AM 27.6583 -85.8839 292° West 427 491 40,000  Level Jacksonville Center
Fri 11:37:06 AM 27.7011 -86.0117 291° West 427 491 40,000  Level Jacksonville Center
Fri 11:38:06 AM 27.7439 -86.1397 291° West 427 491 40,000  Level Jacksonville Center
Fri 11:39:06 AM 27.7847 -86.2536 292° West 427 491 40,000  Level Jacksonville Center
Fri 11:40:06 AM 27.8275 -86.3792 291° West 426 490 40,000  Level Jacksonville Center
Fri 11:41:07 AM 27.8719 -86.5053 292° West 431 496 40,000  Level Jacksonville Center
Fri 11:42:00 AM 28.0383 -86.4394 300° West  Level Estimated
Fri 11:42:07 AM 27.9142 -86.6333 290° West 431 496 40,000  Level Jacksonville Center
Fri 11:43:07 AM 27.9583 -86.7572 292° West 436 502 40,000  Level Jacksonville Center
Fri 11:44:06 AM 28.0006 -86.8833 291° West 427 491 40,000  Level Jacksonville Center
Fri 11:45:06 AM 28.0594 -86.9986 300° West 432 497 40,000  Level Jacksonville Center
Fri 11:46:19 AM 28.1419 -87.1250 307° West 427 491 40,000  Level Houston Center
Fri 11:47:21 AM 28.2103 -87.2364 305° West 429 494 40,000  Level Houston Center
Fri 11:48:23 AM 28.2794 -87.3467 305° West 429 494 40,000  Level Houston Center
Fri 11:49:25 AM 28.3608 -87.4825 304° West 432 497 40,000  Level Houston Center
Fri 11:50:27 AM 28.4292 -87.5947 305° West 432 497 40,000  Level Houston Center
Fri 11:51:29 AM 28.4986 -87.7081 305° West 434 499 40,000  Level Houston Center
Fri 11:52:32 AM 28.5675 -87.8225 304° West 438 504 40,000  Level Houston Center
Fri 11:53:34 AM 28.6364 -87.9375 304° West 439 505 40,000  Level Houston Center
Fri 11:54:36 AM 28.7178 -88.0742 304° West 441 507 40,000  Level Houston Center
Fri 11:55:38 AM 28.7869 -88.1886 305° West 442 509 40,000  Level Houston Center
Fri 11:56:40 AM 28.8575 -88.3033 305° West 442 509 40,000  Level Houston Center
Fri 11:57:42 AM 28.9256 -88.4194 304° West 442 509 40,000  Level Houston Center
Fri 11:58:44 AM 28.9950 -88.5353 304° West 441 507 40,000  Level Houston Center
Fri 11:59:46 AM 29.0636 -88.6514 304° West 441 507 40,000  Level Houston Center
Fri 12:00:49 PM 29.1461 -88.7914 304° West 442 509 40,000  Level Houston Center
Fri 12:01:51 PM 29.2150 -88.9078 304° West 442 509 40,000  Level Houston Center
Fri 12:02:53 PM 29.2831 -89.0231 304° West 440 506 40,000  Level Houston Center
Fri 12:03:55 PM 29.3500 -89.1408 303° West 440 506 40,000  Level Houston Center
Fri 12:04:57 PM 29.4192 -89.2558 305° West 440 506 40,000  Level Houston Center
Fri 12:05:59 PM 29.4872 -89.3733 304° West 441 507 40,000  Level Houston Center
Fri 12:07:01 PM 29.5686 -89.5175 303° West 445 512 40,000  Level Houston Center
Fri 12:08:04 PM 29.6369 -89.6325 304° West 440 506 40,000  Level Houston Center
Fri 12:09:06 PM 29.7044 -89.7506 303° West 439 505 40,000  Level Houston Center
Fri 12:10:08 PM 29.7708 -89.8661 304° West 435 501 40,000  Level Houston Center
Fri 12:11:10 PM 29.8369 -89.9806 304° West 429 494 40,000  Level Houston Center
Fri 12:12:12 PM 29.9017 -90.0933 304° West 424 488 40,000  Level Houston Center
Fri 12:13:14 PM 29.9797 -90.2303 303° West 424 488 40,000  Level Houston Center
Fri 12:14:16 PM 30.0458 -90.3422 304° West 421 484 40,000  Level Houston Center
Fri 12:15:18 PM 30.1103 -90.4564 303° West 423 487 40,000  Level Houston Center
Fri 12:16:21 PM 30.1744 -90.5689 303° West 421 484 40,000  Level Houston Center
Fri 12:17:23 PM 30.2397 -90.6822 304° West 421 484 40,000  Level Houston Center
Fri 12:18:25 PM 30.3028 -90.7956 303° West 420 483 40,000  Level Houston Center
Fri 12:19:27 PM 30.3697 -90.9094 304° West 424 488 40,000  Level Houston Center
Fri 12:20:29 PM 30.4467 -91.0453 303° West 422 486 40,000  Level Houston Center
Fri 12:21:31 PM 30.5100 -91.1594 303° West 422 486 40,000  Level Houston Center
Fri 12:22:33 PM 30.5747 -91.2750 303° West 425 489 40,000  Level Houston Center
Fri 12:23:35 PM 30.6394 -91.3886 304° West 424 488 40,000  Level Houston Center
Fri 12:24:38 PM 30.7078 -91.5117 303° West 428 493 40,000  Level Houston Center
Fri 12:25:40 PM 30.7736 -91.6264 304° West 427 491 40,000  Level Houston Center
Fri 12:26:42 PM 30.8378 -91.7436 303° West 430 495 40,000  Level Houston Center
Fri 12:27:44 PM 30.9169 -91.8831 304° West 431 496 40,000  Level Houston Center
Fri 12:28:46 PM 30.9811 -92.0006 303° West 431 496 40,000  Level Houston Center
Fri 12:29:48 PM 31.0389 -92.1044 303° West 427 491 40,000  Level Houston Center
Fri 12:30:50 PM 31.1158 -92.2458 302° West 430 495 40,000  Level Houston Center
Fri 12:31:53 PM 31.1811 -92.3639 303° West 433 498 40,000  Level Houston Center
Fri 12:32:55 PM 31.2450 -92.4811 303° West 431 496 40,000  Level Houston Center
Fri 12:33:57 PM 31.2981 -92.6106 296° West 440 506 40,000  Level Houston Center
Fri 12:34:59 PM 31.3472 -92.7403 294° West 441 507 40,000  Level Houston Center
Fri 12:36:01 PM 31.4064 -92.8936 294° West 438 504 40,000  Level Houston Center
Fri 12:37:03 PM 31.4556 -93.0236 294° West 437 503 40,000  Level Houston Center
Fri 12:38:06 PM 31.5056 -93.1606 293° West 445 512 40,000  Level Houston Center
Fri 12:39:08 PM 31.5558 -93.2931 294° West 439 505 40,000  Level Houston Center
Fri 12:40:10 PM 31.6050 -93.4281 293° West 447 514 40,000  Level Houston Center
Fri 12:41:12 PM 31.6642 -93.5886 293° West 447 514 40,000  Level Houston Center
Fri 12:42:14 PM 31.7147 -93.7197 294° West 444 511 40,000  Level Houston Center
Fri 12:43:16 PM 31.7592 -93.8547 291° West 444 511 40,000  Level Houston Center
Fri 12:44:18 PM 31.7853 -93.9989 282° West 451 519 40,000  Level Houston Center
Fri 12:45:20 PM 31.8131 -94.1433 283° West 453 521 40,000  Level Houston Center
Fri 12:46:23 PM 31.8475 -94.3139 283° West 451 519 40,000  Level Houston Center
Fri 12:47:25 PM 31.8756 -94.4581 283° West 453 521 40,000  Level Houston Center
Fri 12:48:27 PM 31.9031 -94.6003 283° West 449 517 40,000 -435 Level Houston Center
Fri 12:49:29 PM 31.9297 -94.7411 283° West 445 512 39,100 -1,225 Descending Houston Center
Fri 12:50:49 PM 31.9681 -94.9475 282° West 446 513 37,100 -1,586 Descending Fort Worth Center
Fri 12:51:49 PM 31.9958 -95.0961 282° West 453 521 35,400 -1,900 Descending Fort Worth Center
Fri 12:52:49 PM 32.0214 -95.2472 281° West 459 528 33,300 -2,150 Descending Fort Worth Center
Fri 12:53:49 PM 32.0511 -95.3986 283° West 470 541 31,100 -2,250 Descending Fort Worth Center
Fri 12:54:49 PM 32.0764 -95.5550 281° West 481 554 28,800 -2,500 Descending Fort Worth Center
Fri 12:55:49 PM 32.1033 -95.6867 284° West 475 547 26,100 -2,950 Descending Fort Worth Center
Fri 12:56:49 PM 32.1242 -95.8408 279° West 475 547 22,900 -3,300 Descending Fort Worth Center
Fri 12:57:49 PM 32.1489 -95.9878 281° West 465 535 19,500 -3,450 Descending Fort Worth Center
Fri 12:58:49 PM 32.1714 -96.1297 281° West 460 529 16,000 -3,093 Descending Fort Worth Center
Fri 01:00:30 PM 32.2167 -96.3500 284° West 350 403 11,200 -2,400 Descending Dallas / Fort Worth TRACON
Fri 01:01:49 PM 32.2578 -96.4800 291° West 347 399 8,800 -1,381 Descending Fort Worth Center
Fri 01:02:49 PM 32.2817 -96.5731 287° West 307 353 8,000 -650 Descending Fort Worth Center
Fri 01:03:49 PM 32.3383 -96.6389 316° Northwest 272 313 7,500 -900 Descending Fort Worth Center
Fri 01:04:49 PM 32.3722 -96.7197 296° West 272 313 6,200 -1,350 Descending Fort Worth Center
Fri 01:05:49 PM 32.3936 -96.8058 286° West 272 313 4,800 -1,350 Descending Fort Worth Center
Fri 01:06:49 PM 32.4169 -96.8917 288° West 272 313 3,500 -900 Descending Fort Worth Center
Fri 01:07:49 PM 32.4317 -96.9678 283° West 260 299 3,000 -250 Descending Fort Worth Center
Fri 01:08:49 PM 32.4508 -97.0342 289° West 250 288 3,000 -150 Level Fort Worth Center
Fri 01:09:49 PM 32.5072 -97.0661 334° Northwest 198 228 2,700 -350 Descending Fort Worth Center
Fri 01:10:49 PM 32.5553 -97.0708 355° North 198 228 2,300 -550 Descending Fort Worth Center
Fri 01:11:49 PM 32.6075 -97.0831 349° North 179 206 1,600 -706 Descending Fort Worth Center
Fri 01:12:48 PM 32.6431 -97.0903 350° North 161 185 900 -712 Descending Fort Worth Center
Fri 01:16:00 PM 32.6500 -97.0833 351° North  Level FlightAware Approximate

Login

Don't have an account? Register now (free) for customized features, flight alerts, and more!